Time;durP1;ratioP1;P1;durP2;ratioP2;P2;SDS_P1;SDS_P2;PMS_P1;PMS_P2;Temp;Humidity;BMP_temperature;BMP_pressure;BME280_temperature;BME280_humidity;BME280_pressure;Samples;Min_cycle;Max_cycle;Signal;HPM_P1;HPM_P2
2023/10/15 00:01:13;;;;;;;34.55;32.55;;;;;;;14.92;100.00;100611.81;5024662;28;20057;-75
2023/10/15 00:03:40;;;;;;;36.85;34.65;;;;;;;14.77;100.00;100616.84;5015250;28;20058;-75
2023/10/15 00:06:07;;;;;;;32.42;30.42;;;;;;;14.56;100.00;100607.59;5030009;28;20793;-76
2023/10/15 00:08:33;;;;;;;37.67;35.20;;;;;;;14.55;100.00;100600.59;5015344;28;20046;-75
2023/10/15 00:11:02;;;;;;;37.85;35.58;;;;;;;14.48;100.00;100600.69;5025709;28;20052;-77
2023/10/15 00:13:29;;;;;;;34.85;32.75;;;;;;;14.21;100.00;100593.16;5020130;28;20054;-77
2023/10/15 00:15:56;;;;;;;31.67;29.67;;;;;;;14.43;100.00;100596.06;5026561;28;20053;-77
2023/10/15 00:18:49;;;;;;;35.28;33.08;;;;;;;14.55;100.00;100598.75;5024494;28;20140;-76
2023/10/15 00:21:22;;;;;;;31.75;29.75;;;;;;;14.39;100.00;100594.09;5019691;28;20061;-76
2023/10/15 00:23:52;;;;;;;33.65;31.67;;;;;;;14.38;100.00;100587.94;5031990;28;20045;-76
2023/10/15 00:26:23;;;;;;;35.33;33.33;;;;;;;14.41;100.00;100587.47;5026786;28;20512;-77
2023/10/15 00:28:49;;;;;;;30.40;28.50;;;;;;;14.47;100.00;100587.59;5021833;28;20074;-75
2023/10/15 00:31:17;;;;;;;35.85;33.80;;;;;;;14.25;100.00;100582.00;5011752;28;20061;-76
2023/10/15 00:33:46;;;;;;;36.78;34.78;;;;;;;14.30;100.00;100588.28;5024582;28;20053;-76
2023/10/15 00:36:13;;;;;;;31.60;29.70;;;;;;;14.46;100.00;100588.63;5013572;28;20489;-76
2023/10/15 00:38:43;;;;;;;38.53;36.13;;;;;;;14.32;100.00;100578.19;5028678;28;20532;-77
2023/10/15 00:41:10;;;;;;;35.30;33.20;;;;;;;14.29;100.00;100585.88;5011733;28;20046;-75
2023/10/15 00:43:54;;;;;;;34.78;32.67;;;;;;;13.43;100.00;100582.72;5015965;28;20053;-76
2023/10/15 00:46:24;;;;;;;34.58;32.47;;;;;;;13.20;100.00;100581.59;5022942;28;20477;-77
2023/10/15 00:48:56;;;;;;;31.25;29.25;;;;;;;12.74;100.00;100577.69;5027830;28;20045;-77
2023/10/15 00:51:23;;;;;;;28.83;26.92;;;;;;;13.20;100.00;100581.59;5020849;28;20085;-76
2023/10/15 00:53:58;;;;;;;31.98;29.88;;;;;;;13.11;100.00;100577.63;5031918;28;20450;-74
2023/10/15 00:56:27;;;;;;;31.80;29.70;;;;;;;13.17;100.00;100565.25;5031822;28;20410;-76
2023/10/15 00:59:15;;;;;;;33.15;31.05;;;;;;;13.05;100.00;100574.00;5030371;28;20429;-77
2023/10/15 01:01:49;;;;;;;30.30;28.40;;;;;;;12.66;100.00;100571.84;5026191;28;20133;-76
2023/10/15 01:04:30;;;;;;;29.83;27.92;;;;;;;12.92;100.00;100565.34;5014092;28;20068;-76
2023/10/15 01:07:00;;;;;;;31.77;29.77;;;;;;;12.83;100.00;100571.00;5028545;28;20056;-77
2023/10/15 01:09:36;;;;;;;29.25;27.25;;;;;;;12.91;100.00;100566.41;5020444;28;20057;-76
2023/10/15 01:12:25;;;;;;;30.77;28.67;;;;;;;12.78;100.00;100567.38;5031667;28;20056;-75
2023/10/15 01:14:53;;;;;;;46.97;32.30;;;;;;;13.03;100.00;100569.94;5025307;28;20054;-76
2023/10/15 01:17:23;;;;;;;33.13;31.02;;;;;;;13.01;100.00;100564.00;5018889;28;20520;-76
2023/10/15 01:19:51;;;;;;;33.97;31.77;;;;;;;12.83;100.00;100559.53;5025072;28;20648;-75
2023/10/15 01:22:21;;;;;;;29.90;27.90;;;;;;;12.61;100.00;100557.31;5023024;28;20429;-75
2023/10/15 01:24:53;;;;;;;31.55;29.35;;;;;;;12.72;100.00;100560.28;5023524;28;20051;-75
2023/10/15 01:27:27;;;;;;;33.55;31.38;;;;;;;12.51;100.00;100564.22;5030243;28;20587;-76
2023/10/15 01:29:58;;;;;;;42.45;39.75;;;;;;;12.69;100.00;100558.88;5027532;28;20437;-75
2023/10/15 01:32:26;;;;;;;38.53;35.78;;;;;;;12.12;100.00;100567.06;5017721;28;20045;-76
2023/10/15 01:34:55;;;;;;;37.15;34.75;;;;;;;12.22;100.00;100568.41;5029931;28;20037;-76
2023/10/15 01:37:24;;;;;;;30.27;28.27;;;;;;;12.30;100.00;100565.47;5024094;28;20483;-76
2023/10/15 01:40:00;;;;;;;32.00;29.70;;;;;;;12.12;100.00;100568.91;5026373;28;20488;-76
2023/10/15 01:42:40;;;;;;;32.08;30.10;;;;;;;12.17;100.00;100570.94;5020550;28;20054;-76
2023/10/15 01:45:16;;;;;;;36.55;34.35;;;;;;;12.24;100.00;100569.00;5024357;28;20049;-77
2023/10/15 01:50:33;;;;;;;31.35;29.35;;;;;;;11.89;100.00;100558.88;5012400;28;20060;-77
2023/10/15 01:53:03;;;;;;;29.95;27.95;;;;;;;11.81;100.00;100557.28;5017688;28;20156;-77
2023/10/15 01:55:35;;;;;;;31.63;29.73;;;;;;;11.98;100.00;100564.75;5027088;28;20566;-77
2023/10/15 01:58:04;;;;;;;33.63;31.63;;;;;;;12.00;100.00;100557.34;5013373;28;20080;-77
2023/10/15 02:00:43;;;;;;;33.33;31.25;;;;;;;11.87;100.00;100556.44;5020721;28;20045;-77
2023/10/15 02:03:11;;;;;;;30.83;29.02;;;;;;;11.72;100.00;100558.59;5023854;28;20445;-76
2023/10/15 02:05:42;;;;;;;28.83;27.02;;;;;;;11.65;100.00;100563.16;5026003;28;20146;-77
2023/10/15 02:08:12;;;;;;;31.83;30.02;;;;;;;11.52;100.00;100565.91;5018939;28;20899;-76
2023/10/15 02:10:46;;;;;;;32.03;30.02;;;;;;;11.06;100.00;100564.34;5012974;28;20559;-76
2023/10/15 02:13:15;;;;;;;29.20;27.30;;;;;;;11.06;100.00;100570.47;5029359;28;20057;-76
2023/10/15 02:15:43;;;;;;;31.58;29.67;;;;;;;11.36;100.00;100562.72;5027078;28;20140;-77
2023/10/15 02:18:14;;;;;;;29.58;27.77;;;;;;;11.36;100.00;100570.72;5029937;28;20061;-77
2023/10/15 02:20:44;;;;;;;36.00;33.90;;;;;;;11.45;100.00;100555.31;5021149;28;20836;-76
2023/10/15 02:23:21;;;;;;;38.08;35.97;;;;;;;11.43;100.00;100552.84;5024084;28;20056;-75
2023/10/15 02:25:57;;;;;;;34.63;32.63;;;;;;;11.42;100.00;100553.09;5014150;28;20054;-76
2023/10/15 02:28:25;;;;;;;37.15;34.75;;;;;;;11.41;100.00;100554.13;5029131;28;20053;-78
2023/10/15 02:30:58;;;;;;;37.08;34.67;;;;;;;10.85;100.00;100554.84;5022065;28;20041;-77
2023/10/15 02:33:25;;;;;;;32.08;30.08;;;;;;;11.37;100.00;100551.06;5022912;28;20046;-76
2023/10/15 02:35:54;;;;;;;30.70;28.80;;;;;;;10.85;100.00;100557.50;5030066;28;20668;-76
2023/10/15 02:38:26;;;;;;;30.05;28.15;;;;;;;10.76;100.00;100549.75;5025677;28;20077;-77
2023/10/15 02:41:03;;;;;;;29.55;27.55;;;;;;;11.02;100.00;100550.69;5023502;28;20085;-77
2023/10/15 02:43:32;;;;;;;33.15;31.13;;;;;;;11.19;100.00;100548.31;5021890;28;20536;-77
2023/10/15 02:46:00;;;;;;;32.83;30.58;;;;;;;11.32;100.00;100544.78;5025457;28;20579;-76
2023/10/15 02:48:44;;;;;;;32.08;29.88;;;;;;;11.12;100.00;100544.88;5028908;28;20049;-75
2023/10/15 02:51:11;;;;;;;27.13;25.42;;;;;;;11.30;100.00;100534.34;5022489;28;20049;-76
2023/10/15 02:53:39;;;;;;;28.77;26.63;;;;;;;11.54;100.00;100535.41;5026865;28;20057;-76
2023/10/15 02:56:11;;;;;;;31.83;29.92;;;;;;;11.50;100.00;100541.34;5017353;28;20045;-76
2023/10/15 02:58:45;;;;;;;26.88;25.27;;;;;;;11.39;100.00;100534.91;5024341;28;20476;-77
2023/10/15 03:01:17;;;;;;;27.30;25.50;;;;;;;11.32;100.00;100534.94;5018394;28;20065;-76
2023/10/15 03:03:49;;;;;;;24.77;23.17;;;;;;;11.57;100.00;100534.16;5023362;28;20872;-77
2023/10/15 03:06:18;;;;;;;26.27;24.48;;;;;;;11.28;100.00;100539.06;5026968;28;20755;-78
2023/10/15 03:08:47;;;;;;;31.65;29.65;;;;;;;11.26;100.00;100533.16;5022582;28;20046;-77
2023/10/15 03:11:18;;;;;;;30.85;28.80;;;;;;;11.30;100.00;100536.19;5028297;28;20038;-78
2023/10/15 03:13:52;;;;;;;33.63;31.52;;;;;;;11.41;100.00;100540.84;5024450;28;20208;-77
2023/10/15 03:16:19;;;;;;;39.47;37.10;;;;;;;11.34;100.00;100540.84;5028412;28;20057;-77
2023/10/15 03:18:50;;;;;;;32.67;30.48;;;;;;;11.35;100.00;100541.69;5021450;28;20053;-77
2023/10/15 03:21:26;;;;;;;32.25;30.25;;;;;;;11.40;100.00;100537.34;5019729;28;20103;-78
2023/10/15 03:23:56;;;;;;;37.65;35.45;;;;;;;11.37;100.00;100540.41;5028728;28;20107;-77
2023/10/15 03:26:24;;;;;;;37.65;35.03;;;;;;;11.28;100.00;100541.72;5024349;28;20038;-76
2023/10/15 03:28:53;;;;;;;38.08;35.67;;;;;;;11.28;100.00;100547.03;5020326;28;20088;-77
2023/10/15 03:31:25;;;;;;;33.55;31.45;;;;;;;11.13;100.00;100549.16;5025536;28;20107;-77
2023/10/15 03:34:17;;;;;;;36.47;34.17;;;;;;;11.34;100.00;100540.84;5025068;28;20063;-76
2023/10/15 03:36:57;;;;;;;35.13;33.03;;;;;;;11.06;100.00;100538.59;5019320;28;20800;-77
2023/10/15 03:39:53;;;;;;;32.20;30.27;;;;;;;11.07;100.00;100537.53;5029436;28;20045;-76
2023/10/15 03:42:26;;;;;;;37.13;34.92;;;;;;;11.13;100.00;100538.53;5021063;28;20120;-76
2023/10/15 03:45:00;;;;;;;40.03;37.72;;;;;;;11.10;100.00;100528.31;5021153;28;20056;-77
2023/10/15 03:47:27;;;;;;;38.95;36.65;;;;;;;11.00;100.00;100536.78;5021093;28;20046;-77
2023/10/15 03:49:55;;;;;;;28.80;27.00;;;;;;;10.91;100.00;100540.72;5025565;28;20045;-77
2023/10/15 03:52:23;;;;;;;32.42;30.15;;;;;;;10.88;100.00;100549.09;5018847;28;20054;-76
2023/10/15 03:54:51;;;;;;;36.78;34.50;;;;;;;10.77;100.00;100537.28;5018368;28;20045;-77
2023/10/15 03:57:18;;;;;;;37.90;35.42;;;;;;;10.68;100.00;100536.72;5018423;28;20255;-76
2023/10/15 03:59:51;;;;;;;29.05;27.25;;;;;;;10.69;100.00;100541.00;5012079;28;20054;-77
2023/10/15 04:02:25;;;;;;;;;;;;;;;10.70;100.00;100541.81;5021762;28;20506;-77
2023/10/15 04:05:07;;;;;;;32.58;30.55;;;;;;;10.57;100.00;100536.56;5018573;28;19928;-76
2023/10/15 04:07:39;;;;;;;27.02;25.33;;;;;;;10.66;100.00;100543.28;5023281;28;20057;-77
2023/10/15 04:10:07;;;;;;;27.90;26.00;;;;;;;10.66;100.00;100535.31;5020205;28;20457;-77
2023/10/15 04:12:35;;;;;;;25.63;23.83;;;;;;;10.15;100.00;100528.06;5029186;28;20132;-76
2023/10/15 04:15:12;;;;;;;27.60;25.80;;;;;;;10.08;100.00;100522.78;5023723;28;20049;-77
2023/10/15 04:17:40;;;;;;;25.58;23.88;;;;;;;10.12;100.00;100525.84;5023054;28;20095;-76
2023/10/15 04:20:08;;;;;;;29.10;27.20;;;;;;;10.27;100.00;100519.28;5018687;28;20052;-76
2023/10/15 04:22:44;;;;;;;25.90;24.40;;;;;;;10.32;100.00;100516.84;5021518;28;20127;-77
2023/10/15 04:25:23;;;;;;;29.60;27.70;;;;;;;10.16;100.00;100524.41;5012519;28;20050;-76
2023/10/15 04:27:54;;;;;;;24.40;22.75;;;;;;;10.16;100.00;100516.44;5020332;28;20532;-78
2023/10/15 04:30:22;;;;;;;26.25;24.52;;;;;;;10.39;100.00;100522.13;5024552;28;20056;-77
2023/10/15 04:33:03;;;;;;;24.30;22.70;;;;;;;10.29;100.00;100522.56;5018927;28;20053;-76
2023/10/15 04:35:34;;;;;;;28.55;26.67;;;;;;;10.38;100.00;100517.84;5019105;28;20049;-76
2023/10/15 04:38:03;;;;;;;24.27;22.48;;;;;;;10.44;100.00;100524.13;5019211;28;20041;-76
2023/10/15 04:40:39;;;;;;;24.65;22.95;;;;;;;10.21;100.00;100516.63;5028231;28;20107;-75
2023/10/15 04:43:25;;;;;;;23.00;21.40;;;;;;;10.13;100.00;100519.50;5018782;28;20054;-78
2023/10/15 04:45:54;;;;;;;24.15;22.50;;;;;;;10.05;100.00;100524.00;5025164;28;20470;-75
2023/10/15 04:48:36;;;;;;;26.45;24.35;;;;;;;10.22;100.00;100518.25;5015906;28;20146;-76
2023/10/15 04:51:12;;;;;;;24.73;22.98;;;;;;;10.30;100.00;100531.34;5021257;28;20131;-76
2023/10/15 04:53:42;;;;;;;24.35;22.55;;;;;;;10.34;100.00;100524.56;5023104;28;20444;-76
2023/10/15 04:56:09;;;;;;;24.13;22.42;;;;;;;10.40;100.00;100523.75;5015999;28;20232;-76
2023/10/15 04:58:36;;;;;;;24.35;22.65;;;;;;;10.47;100.00;100521.91;5021837;28;20469;-77
2023/10/15 05:01:04;;;;;;;23.58;21.98;;;;;;;10.51;100.00;100523.09;5017917;28;20056;-76
2023/10/15 05:03:32;;;;;;;23.00;21.40;;;;;;;10.62;100.00;100523.47;5021570;28;20057;-75
2023/10/15 05:06:04;;;;;;;22.83;21.30;;;;;;;10.66;100.00;100532.66;5023414;28;20046;-76
2023/10/15 05:08:32;;;;;;;24.63;23.02;;;;;;;10.72;100.00;100527.31;5016708;28;20046;-76
2023/10/15 05:10:59;;;;;;;24.98;23.17;;;;;;;10.82;100.00;100526.84;5016362;28;20038;-76
2023/10/15 05:13:28;;;;;;;23.27;21.67;;;;;;;10.84;100.00;100524.00;5025555;28;20076;-77
2023/10/15 05:15:56;;;;;;;23.73;22.13;;;;;;;10.98;100.00;100513.09;5022644;28;20055;-77
2023/10/15 05:18:23;;;;;;;23.40;21.80;;;;;;;11.11;100.00;100517.50;5022719;28;20049;-76
2023/10/15 05:20:58;;;;;;;22.98;21.38;;;;;;;11.42;100.00;100529.16;5026677;28;20053;-76
2023/10/15 05:23:26;;;;;;;24.30;22.60;;;;;;;11.43;100.00;100522.78;5021831;28;20551;-76
2023/10/15 05:26:04;;;;;;;23.88;22.10;;;;;;;11.71;100.00;100525.03;5028677;28;20045;-77
2023/10/15 05:28:31;;;;;;;25.60;23.83;;;;;;;11.89;100.00;100524.28;5021947;28;20046;-77
2023/10/15 05:30:58;;;;;;;34.17;23.50;;;;;;;11.98;100.00;100517.66;5024507;28;20056;-76
2023/10/15 05:33:25;;;;;;;24.77;23.08;;;;;;;12.08;100.00;100519.81;5011512;28;20045;-77
2023/10/15 05:35:52;;;;;;;24.15;22.55;;;;;;;12.33;100.00;100523.22;5019439;28;20049;-76
2023/10/15 05:38:19;;;;;;;31.45;23.63;;;;;;;12.52;100.00;100521.34;5018791;28;20056;-77
2023/10/15 05:41:00;;;;;;;26.77;24.88;;;;;;;12.81;100.00;100526.97;5025225;28;20460;-77
2023/10/15 05:43:27;;;;;;;26.80;24.70;;;;;;;13.06;100.00;100532.16;5023228;28;20072;-76
2023/10/15 05:45:54;;;;;;;24.83;22.92;;;;;;;13.28;100.00;100529.81;5023350;28;20049;-77
2023/10/15 05:48:25;;;;;;;24.70;23.00;;;;;;;13.57;100.00;100538.81;5022046;28;20053;-77
2023/10/15 05:51:03;;;;;;;24.80;23.02;;;;;;;13.80;100.00;100537.19;5026909;28;20050;-76
2023/10/15 05:53:32;;;;;;;24.00;22.20;;;;;;;13.92;100.00;100532.69;5023668;28;20100;-77
2023/10/15 05:56:00;;;;;;;23.50;21.75;;;;;;;14.26;100.00;100532.91;5024952;28;20060;-76
2023/10/15 05:58:33;;;;;;;24.27;22.48;;;;;;;14.40;100.00;100534.25;5020774;28;20521;-76
2023/10/15 06:01:03;;;;;;;24.42;22.73;;;;;;;14.43;100.00;100541.81;5014254;28;20120;-75
2023/10/15 06:03:30;;;;;;;24.35;22.67;;;;;;;14.65;100.00;100542.84;5015840;28;20554;-75
2023/10/15 06:05:57;;;;;;;23.20;21.40;;;;;;;14.75;100.00;100546.75;5022866;28;20050;-75
2023/10/15 06:08:24;;;;;;;23.88;22.05;;;;;;;15.00;100.00;100544.56;5029533;28;20054;-76
2023/10/15 06:10:51;;;;;;;22.95;21.35;;;;;;;15.26;100.00;100543.16;5032233;28;20049;-76
2023/10/15 06:13:19;;;;;;;23.77;22.00;;;;;;;15.18;100.00;100534.72;5028902;28;20049;-77
2023/10/15 06:15:48;;;;;;;23.00;21.30;;;;;;;15.28;100.00;100542.91;5029678;28;20424;-75
2023/10/15 06:18:23;;;;;;;23.48;21.50;;;;;;;15.26;100.00;100532.47;5024895;28;20049;-76
2023/10/15 06:20:50;;;;;;;22.48;20.77;;;;;;;15.64;100.00;100535.47;5030394;28;20045;-76
2023/10/15 06:23:19;;;;;;;22.20;20.50;;;;;;;15.72;100.00;100530.56;5022096;28;20050;-76
2023/10/15 06:25:46;;;;;;;23.10;21.30;;;;;;;16.41;100.00;100532.06;5015933;28;20056;-77
2023/10/15 06:28:14;;;;;;;23.42;21.73;;;;;;;16.57;100.00;100533.88;5028233;28;20448;-76
2023/10/15 06:30:44;;;;;;;22.27;20.58;;;;;;;16.91;100.00;100533.75;5034593;28;20041;-76
2023/10/15 06:33:11;;;;;;;23.23;21.52;;;;;;;16.80;100.00;100530.16;5015136;28;20509;-75
2023/10/15 06:35:40;;;;;;;22.55;20.90;;;;;;;16.84;100.00;100523.22;5018484;28;20045;-74
2023/10/15 06:38:07;;;;;;;23.20;21.50;;;;;;;17.21;100.00;100532.44;5015961;28;20133;-74
2023/10/15 06:40:35;;;;;;;24.38;22.67;;;;;;;17.48;100.00;100525.16;5017403;28;20497;-78
2023/10/15 06:43:02;;;;;;;23.50;21.80;;;;;;;17.72;100.00;100528.28;5017792;28;20050;-76
2023/10/15 06:45:29;;;;;;;22.75;21.10;;;;;;;18.01;100.00;100526.09;5025218;28;20046;-76
2023/10/15 06:47:57;;;;;;;24.48;22.77;;;;;;;18.49;100.00;100532.25;5019057;28;20049;-78
2023/10/15 06:50:24;;;;;;;24.35;22.40;;;;;;;18.57;100.00;100527.44;5023346;28;20068;-77
2023/10/15 06:52:52;;;;;;;22.88;21.17;;;;;;;18.94;100.00;100528.13;5024283;28;20075;-75
2023/10/15 06:55:21;;;;;;;34.58;32.35;;;;;;;19.34;100.00;100523.88;5019211;28;20080;-76
2023/10/15 06:57:48;;;;;;;34.65;32.35;;;;;;;19.56;100.00;100517.41;5020995;28;20045;-77
2023/10/15 07:00:22;;;;;;;31.63;29.52;;;;;;;19.63;100.00;100524.13;5011403;28;20049;-76
2023/10/15 07:02:49;;;;;;;31.55;29.45;;;;;;;20.22;100.00;100517.31;5015606;28;20041;-75
2023/10/15 07:05:20;;;;;;;27.00;25.10;;;;;;;20.44;100.00;100521.53;5018799;28;20056;-76
2023/10/15 07:07:47;;;;;;;31.05;28.75;;;;;;;20.49;100.00;100516.94;5024887;28;20155;-78
2023/10/15 07:10:15;;;;;;;30.50;28.30;;;;;;;20.52;100.00;100513.72;5019858;28;20046;-75
2023/10/15 07:12:46;;;;;;;28.27;26.20;;;;;;;20.51;100.00;100514.75;5029382;28;20480;-76
2023/10/15 07:15:14;;;;;;;32.17;29.98;;;;;;;20.63;100.00;100508.25;5017717;28;20566;-75
2023/10/15 07:17:42;;;;;;;35.65;33.05;;;;;;;20.75;100.00;100498.72;5023347;28;20520;-75
2023/10/15 07:20:15;;;;;;;35.83;33.33;;;;;;;21.07;100.00;100499.38;5019966;28;20076;-77
2023/10/15 07:22:48;;;;;;;36.30;33.83;;;;;;;21.05;100.00;100502.31;5016293;28;20054;-77
2023/10/15 07:25:17;;;;;;;35.03;32.45;;;;;;;21.29;100.00;100499.72;5023160;28;20045;-78
2023/10/15 07:27:45;;;;;;;34.50;31.42;;;;;;;21.20;100.00;100491.41;5026033;28;20049;-75
2023/10/15 07:30:14;;;;;;;32.35;30.05;;;;;;;21.33;100.00;100491.84;5025919;28;20131;-75
2023/10/15 07:32:42;;;;;;;36.47;33.78;;;;;;;21.82;100.00;100486.31;5011241;28;20046;-76
2023/10/15 07:35:12;;;;;;;34.53;31.77;;;;;;;20.78;100.00;100494.69;5026275;28;20060;-76
2023/10/15 07:38:04;;;;;;;33.33;30.92;;;;;;;22.20;100.00;100480.22;5022209;28;20517;-76
2023/10/15 07:41:05;;;;;;;29.80;27.70;;;;;;;22.43;100.00;100478.59;5024438;28;20075;-76
2023/10/15 07:43:32;;;;;;;32.83;30.52;;;;;;;22.24;100.00;100473.13;5019916;28;20091;-76
2023/10/15 07:45:59;;;;;;;32.67;30.58;;;;;;;22.11;100.00;100482.72;5018332;28;20125;-76
2023/10/15 07:48:27;;;;;;;35.00;32.63;;;;;;;22.27;100.00;100476.09;5021319;28;20114;-76
2023/10/15 07:50:54;;;;;;;33.40;31.00;;;;;;;22.26;100.00;100469.06;5025643;28;20050;-75
2023/10/15 07:53:23;;;;;;;30.92;28.73;;;;;;;23.07;100.00;100474.44;5021952;28;20068;-76
2023/10/15 07:55:50;;;;;;;32.33;29.60;;;;;;;23.04;100.00;100465.00;5013018;28;20049;-76
2023/10/15 07:58:17;;;;;;;34.80;32.40;;;;;;;23.38;100.00;100468.50;5030300;28;20120;-77
2023/10/15 08:00:44;;;;;;;32.20;29.80;;;;;;;23.04;100.00;100466.91;5022195;28;20437;-77
2023/10/15 08:03:22;;;;;;;33.63;31.02;;;;;;;23.84;100.00;100465.78;5019331;28;20053;-76
2023/10/15 08:05:58;;;;;;;32.03;29.63;;;;;;;24.12;100.00;100458.47;5021220;28;20058;-78
2023/10/15 08:08:26;;;;;;;31.08;28.63;;;;;;;24.25;100.00;100456.84;5021091;28;21630;-77
2023/10/15 08:10:53;;;;;;;32.00;29.50;;;;;;;24.29;100.00;100457.03;5020542;28;20056;-77
2023/10/15 08:13:20;;;;;;;29.85;27.65;;;;;;;23.09;100.00;100462.22;5021431;28;20053;-76
2023/10/15 08:15:47;;;;;;;31.08;28.77;;;;;;;24.47;100.00;100456.13;5030247;28;20041;-77
2023/10/15 08:18:15;;;;;;;32.35;29.90;;;;;;;24.20;100.00;100446.09;5025402;28;20499;-77
2023/10/15 08:20:52;;;;;;;32.35;29.85;;;;;;;23.71;100.00;100456.53;5009281;28;20045;-76
2023/10/15 08:23:22;;;;;;;31.70;29.20;;;;;;;24.17;100.00;100452.91;5015210;28;20053;-76
2023/10/15 08:25:50;;;;;;;30.48;28.08;;;;;;;24.37;100.00;100445.47;5010283;28;20057;-76
2023/10/15 08:28:34;;;;;;;32.00;29.17;;;;;;;23.38;100.00;100452.25;5026459;28;20049;-76
2023/10/15 08:31:33;;;;;;;31.38;28.92;;;;;;;23.30;100.00;100449.13;5029230;28;20505;-76
2023/10/15 08:34:01;;;;;;;32.78;30.38;;;;;;;22.80;100.00;100450.72;5029814;28;20067;-75
2023/10/15 08:36:28;;;;;;;32.50;30.10;;;;;;;23.02;100.00;100448.22;5027309;28;20448;-77
2023/10/15 08:38:55;;;;;;;32.28;29.80;;;;;;;23.32;100.00;100444.19;5027066;28;20060;-76
2023/10/15 08:41:45;;;;;;;30.38;28.08;;;;;;;22.78;100.00;100448.31;5029101;28;20053;-76
2023/10/15 08:44:18;;;;;;;32.10;29.80;;;;;;;23.72;100.00;100443.78;5029054;28;20316;-76
2023/10/15 08:46:46;;;;;;;;;;;;;;;23.54;100.00;100442.72;5025453;28;20053;-76
2023/10/15 08:49:13;;;;;;;31.10;28.63;;;;;;;22.92;100.00;100442.16;5016845;28;19929;-76
2023/10/15 08:51:40;;;;;;;30.25;28.05;;;;;;;23.82;100.00;100440.09;5014705;28;20045;-76
2023/10/15 08:54:11;;;;;;;30.75;28.42;;;;;;;23.39;100.00;100437.59;5023258;28;20463;-76
2023/10/15 08:56:38;;;;;;;31.27;28.85;;;;;;;26.48;100.00;100437.06;5036848;28;20417;-76
2023/10/15 08:59:14;;;;;;;32.78;29.90;;;;;;;25.98;93.26;100432.78;5020059;28;20061;-76
2023/10/15 09:01:43;;;;;;;34.17;30.92;;;;;;;27.48;80.51;100424.31;5011304;28;20133;-75
2023/10/15 09:04:10;;;;;;;32.90;30.13;;;;;;;28.09;77.87;100416.63;5019270;28;20549;-75
2023/10/15 09:06:38;;;;;;;31.35;28.77;;;;;;;26.23;82.10;100419.56;5035878;28;20505;-75
2023/10/15 09:09:12;;;;;;;32.22;29.70;;;;;;;25.69;84.48;100421.63;5025109;28;20398;-76
2023/10/15 09:11:42;;;;;;;32.75;30.15;;;;;;;24.60;95.44;100425.44;5013143;28;20052;-76
2023/10/15 09:14:13;;;;;;;34.78;31.63;;;;;;;25.52;91.82;100423.16;5024371;28;20064;-75
2023/10/15 09:16:46;;;;;;;34.78;32.08;;;;;;;24.89;98.56;100422.28;5014390;28;20067;-75
2023/10/15 09:19:15;;;;;;;32.17;29.48;;;;;;;26.49;90.39;100414.16;5027665;28;20119;-76
2023/10/15 09:21:45;;;;;;;31.70;29.10;;;;;;;25.25;91.30;100417.91;5026501;28;20053;-76
2023/10/15 09:24:14;;;;;;;32.03;29.52;;;;;;;24.55;100.00;100420.13;5017585;28;20056;-75
2023/10/15 09:26:50;;;;;;;32.53;29.83;;;;;;;25.27;95.10;100416.50;5032327;28;20057;-75
2023/10/15 09:29:23;;;;;;;31.77;28.98;;;;;;;25.44;96.56;100420.41;5032332;28;20124;-76
2023/10/15 09:32:04;;;;;;;32.15;29.55;;;;;;;26.10;87.69;100432.19;5016046;28;20132;-76
2023/10/15 09:34:32;;;;;;;38.22;35.22;;;;;;;24.04;100.00;100429.34;5025420;28;20076;-77
2023/10/15 09:37:20;;;;;;;30.50;27.83;;;;;;;24.81;88.74;100425.75;5021928;28;20433;-77
2023/10/15 09:39:53;;;;;;;31.58;28.98;;;;;;;24.03;93.15;100418.81;5018877;28;20060;-77
2023/10/15 09:42:33;;;;;;;32.47;29.52;;;;;;;24.57;97.04;100406.22;5018619;28;20042;-75
2023/10/15 09:45:03;;;;;;;31.30;28.80;;;;;;;25.23;98.68;100420.13;5029441;28;20042;-77
2023/10/15 09:47:57;;;;;;;31.23;28.75;;;;;;;24.29;100.00;100413.63;5024508;28;20042;-76
2023/10/15 09:50:39;;;;;;;30.92;28.42;;;;;;;24.63;100.00;100405.81;5027685;28;20050;-78
2023/10/15 09:53:16;;;;;;;29.60;27.27;;;;;;;24.44;100.00;100403.25;5031600;28;20099;-77
2023/10/15 09:55:45;;;;;;;27.08;24.98;;;;;;;26.54;76.40;100389.50;5031789;28;20072;-76
2023/10/15 09:58:29;;;;;;;27.60;25.30;;;;;;;25.72;89.86;100383.75;5015281;28;20153;-78
2023/10/15 10:01:08;;;;;;;25.40;23.40;;;;;;;25.89;81.45;100376.75;5019466;28;20072;-76
2023/10/15 10:03:59;;;;;;;24.92;22.95;;;;;;;26.00;85.58;100376.16;5032484;28;20053;-76
2023/10/15 10:07:07;;;;;;;25.90;23.90;;;;;;;25.15;92.16;100380.16;5028612;28;20056;-76
2023/10/15 10:09:59;;;;;;;25.98;23.98;;;;;;;25.56;93.43;100374.41;4681159;28;10000788;-76
2023/10/15 10:13:06;;;;;;;25.40;23.40;;;;;;;26.15;82.68;100368.66;5021326;28;20042;-75
2023/10/15 10:15:42;;;;;;;26.00;23.27;;;;;;;28.01;68.23;100363.69;5023270;28;20053;-75
2023/10/15 10:18:17;;;;;;;25.25;23.00;;;;;;;26.03;82.92;100367.34;5018578;28;20132;-77
2023/10/15 10:21:11;;;;;;;26.17;23.77;;;;;;;27.79;75.73;100353.88;5032440;28;20608;-76
2023/10/15 10:23:41;;;;;;;26.67;24.58;;;;;;;28.03;61.23;100361.44;5023759;28;20054;-77
2023/10/15 10:26:16;;;;;;;25.20;23.20;;;;;;;27.06;69.55;100350.47;5031336;28;20104;-76
2023/10/15 10:29:34;;;;;;;25.70;23.60;;;;;;;30.09;54.76;100337.94;5030020;28;20079;-76
2023/10/15 10:32:11;;;;;;;27.80;25.50;;;;;;;26.13;69.47;100355.34;5027314;28;20048;-76
2023/10/15 10:34:45;;;;;;;24.65;22.75;;;;;;;27.07;64.17;100354.78;5023337;28;20068;-76
2023/10/15 10:37:23;;;;;;;25.60;23.70;;;;;;;29.02;58.03;100337.28;5023438;28;20084;-78
2023/10/15 10:39:51;;;;;;;25.50;23.70;;;;;;;28.27;53.62;100338.94;5022282;28;20437;-79
2023/10/15 10:42:26;;;;;;;27.05;24.92;;;;;;;26.20;64.59;100328.47;5034546;28;20045;-78
2023/10/15 10:45:12;;;;;;;27.13;25.13;;;;;;;26.44;68.13;100332.59;5032408;28;20045;-77
2023/10/15 10:47:40;;;;;;;27.60;25.40;;;;;;;28.10;60.94;100328.13;5026813;28;20639;-77
2023/10/15 10:50:22;;;;;;;31.23;25.38;;;;;;;30.16;53.31;100320.91;5041419;28;20057;-77
2023/10/15 10:53:14;;;;;;;34.38;25.25;;;;;;;29.59;52.92;100325.44;5018930;28;20042;-75
2023/10/15 10:56:04;;;;;;;27.37;25.33;;;;;;;28.41;55.46;100316.00;5026456;28;20057;-75
2023/10/15 10:58:34;;;;;;;28.33;26.13;;;;;;;27.69;65.18;100313.31;5021670;28;20321;-76
2023/10/15 11:01:10;;;;;;;26.55;24.55;;;;;;;27.50;66.67;100302.81;5024834;28;20455;-76
2023/10/15 11:03:38;;;;;;;25.50;23.50;;;;;;;28.71;57.85;100303.03;5022052;28;20049;-75
2023/10/15 11:06:07;;;;;;;37.83;22.35;;;;;;;29.02;54.38;100297.09;5031036;28;20141;-76
2023/10/15 11:08:35;;;;;;;24.73;22.80;;;;;;;27.57;60.95;100297.66;5019708;28;20100;-76
2023/10/15 11:11:05;;;;;;;23.80;22.00;;;;;;;26.26;66.32;100299.97;5022447;28;20544;-76
2023/10/15 11:13:34;;;;;;;24.85;22.85;;;;;;;28.93;58.58;100290.91;5015215;28;20050;-76
2023/10/15 11:16:01;;;;;;;25.92;23.63;;;;;;;28.94;58.68;100297.94;5027969;28;20051;-76
2023/10/15 11:18:50;;;;;;;27.48;24.98;;;;;;;27.83;59.11;100280.34;5037756;28;20055;-75
2023/10/15 11:21:26;;;;;;;26.08;23.88;;;;;;;27.29;61.97;100280.97;5031182;28;20406;-77
2023/10/15 11:23:57;;;;;;;27.27;25.17;;;;;;;27.04;64.20;100282.66;5031620;28;20099;-77
2023/10/15 11:26:23;;;;;;;30.23;28.08;;;;;;;28.15;62.04;100272.56;5024224;28;20057;-76
2023/10/15 11:29:25;;;;;;;27.50;25.50;;;;;;;28.51;52.79;100263.72;5033587;28;20049;-78
2023/10/15 11:32:02;;;;;;;27.10;25.20;;;;;;;29.36;54.53;100270.44;5034206;28;20057;-76